»·PEaware :: SWA282 KSAN-KLAS

SWA282 :: KSAN-KLAS

FLIGHT INFORMATION

Flight Status: Arrived
Operator:
Southwest Airlines
More flights by this operator :: More flights under this callsign
Pilot: Ben F. (2808)
Aircraft: BOEING 737-300
(B733)
More flights by this aircraft type
Origin: KSAN San Diego Intl-Lindbergh
United States
Destination: KLAS McCarran Intl
United States
More flights between these airports :: More routes between these airports
Route: PADRZ2 CHKNN SEBBY YELAH MISEN KEPEC6
File this flight plan on PilotEdge
Remarks:
Altitude:
(Current/Filed)
29,000ft
Speed:
(Current/Filed)
446kts
Departed: 10-Jan-21 09:41 AM
Arrived: 10-Jan-21 10:39 AM
Distance/Time
Traveled:
225nm/0:58
Distance/Time
To Go:
Arrived

Flight Plot

Page will automatically refresh every two minutes.

Flight plan parsing failed; only flown route is shown


Map Options




Map Legend


Flown Route
Filed Route
Departure Airport
Arrival Airport
Navaid (VOR, NDB)
Fix

Horizontal Profiles

Position Reports

Time Latitude Longitude Heading Altitude Ground
Speed
10-Jan-21 09:09 32.732571 -117.195499 311 24ft 0kts
10-Jan-21 09:10 32.732571 -117.195499 311 24ft 0kts
10-Jan-21 09:11 32.732571 -117.195499 311 24ft 0kts
10-Jan-21 09:12 32.732571 -117.195499 311 24ft 0kts
10-Jan-21 09:13 32.732571 -117.195499 311 24ft 0kts
10-Jan-21 09:14 32.732571 -117.195499 311 24ft 0kts
10-Jan-21 09:15 32.732571 -117.195499 311 24ft 0kts
10-Jan-21 09:16 32.732571 -117.195499 311 24ft 0kts
10-Jan-21 09:17 32.732571 -117.195499 311 24ft 0kts
10-Jan-21 09:18 32.732571 -117.195499 311 24ft 0kts
10-Jan-21 09:18 32.732571 -117.195499 311 24ft 0kts
10-Jan-21 09:20 32.732571 -117.195499 311 24ft 0kts
10-Jan-21 09:21 32.732571 -117.195499 311 24ft 0kts
10-Jan-21 09:21 32.732571 -117.195499 311 24ft 0kts
10-Jan-21 09:22 32.732571 -117.195499 311 24ft 0kts
10-Jan-21 09:24 32.732571 -117.195499 311 24ft 0kts
10-Jan-21 09:24 32.732571 -117.195498 311 24ft 0kts
10-Jan-21 09:25 32.732532 -117.195447 311 24ft 2kts
10-Jan-21 09:26 32.732125 -117.194922 332 24ft 2kts
10-Jan-21 09:27 32.731962 -117.194858 348 24ft 0kts
10-Jan-21 09:28 32.731987 -117.194863 350 24ft 1kts
10-Jan-21 09:29 32.732797 -117.194459 29 24ft 3kts
10-Jan-21 09:30 32.732878 -117.194406 28 24ft 0kts
10-Jan-21 09:31 32.733071 -117.194274 31 24ft 6kts
10-Jan-21 09:32 32.732234 -117.188485 106 24ft 23kts
10-Jan-21 09:33 32.730363 -117.180780 106 24ft 25kts
10-Jan-21 09:34 32.729143 -117.178039 103 24ft 0kts
10-Jan-21 09:35 32.729143 -117.178039 103 24ft 0kts
10-Jan-21 09:36 32.729143 -117.178039 103 24ft 0kts
10-Jan-21 09:37 32.729136 -117.177814 81 24ft 3kts
10-Jan-21 09:38 32.729520 -117.176651 70 24ft 0kts
10-Jan-21 09:39 32.729959 -117.175619 11 24ft 8kts
10-Jan-21 09:40 32.736527 -117.201453 287 241ft 163kts
10-Jan-21 09:41 32.761812 -117.250670 307 2157ft 194kts
10-Jan-21 09:42 32.797729 -117.313933 305 3886ft 263kts
10-Jan-21 09:43 32.842160 -117.384141 309 7001ft 270kts
10-Jan-21 09:44 32.888068 -117.455476 310 10033ft 274kts
10-Jan-21 09:45 32.937633 -117.532517 310 12078ft 313kts
10-Jan-21 09:46 32.992027 -117.617451 309 14620ft 330kts
10-Jan-21 09:47 33.048085 -117.705156 308 15458ft 339kts
10-Jan-21 09:48 33.115920 -117.782723 319 18013ft 345kts
10-Jan-21 09:49 33.190305 -117.858146 318 20289ft 355kts
10-Jan-21 09:50 33.267649 -117.933631 319 22317ft 365kts
10-Jan-21 09:51 33.347585 -118.011684 318 24126ft 376kts
10-Jan-21 09:52 33.429939 -118.092312 318 25799ft 386kts
10-Jan-21 09:53 33.513720 -118.174546 318 27403ft 393kts
10-Jan-21 09:54 33.602831 -118.251773 331 29061ft 399kts
10-Jan-21 09:55 33.703302 -118.306260 331 29273ft 393kts
10-Jan-21 09:56 33.807040 -118.288338 45 29265ft 449kts
10-Jan-21 09:57 33.867394 -118.154129 49 29270ft 452kts
10-Jan-21 09:58 33.940100 -118.030840 48 29266ft 451kts
10-Jan-21 09:59 34.012790 -117.907879 48 29267ft 451kts
10-Jan-21 10:00 34.085653 -117.784209 48 29266ft 451kts
10-Jan-21 10:01 34.156858 -117.679072 43 29266ft 442kts
10-Jan-21 10:02 34.204743 -117.609192 44 29265ft 442kts
10-Jan-21 10:03 34.283238 -117.494171 44 29267ft 442kts
10-Jan-21 10:04 34.361436 -117.379209 44 29266ft 442kts
10-Jan-21 10:05 34.439575 -117.263688 44 29266ft 442kts
10-Jan-21 10:06 34.517698 -117.148060 44 29266ft 442kts
10-Jan-21 10:07 34.595873 -117.032004 45 29266ft 441kts
10-Jan-21 10:08 34.673646 -116.916171 45 29267ft 441kts
10-Jan-21 10:09 34.751150 -116.800348 45 29274ft 439kts
10-Jan-21 10:10 34.828393 -116.684553 45 29315ft 439kts
10-Jan-21 10:11 34.916159 -116.584306 31 29061ft 433kts
10-Jan-21 10:12 35.009629 -116.494136 32 26777ft 421kts
10-Jan-21 10:13 35.099815 -116.406335 34 24551ft 404kts
10-Jan-21 10:14 35.179181 -116.307952 40 24364ft 409kts
10-Jan-21 10:15 35.258596 -116.208194 40 22965ft 400kts
10-Jan-21 10:16 35.335192 -116.111894 40 21029ft 387kts
10-Jan-21 10:17 35.408797 -116.019093 40 19030ft 373kts
10-Jan-21 10:18 35.479494 -115.929709 40 17091ft 355kts
10-Jan-21 10:19 35.546514 -115.844773 40 15488ft 341kts
10-Jan-21 10:20 35.611463 -115.762226 40 13883ft 326kts
10-Jan-21 10:21 35.671657 -115.685495 40 13003ft 287kts
10-Jan-21 10:22 35.727661 -115.613485 40 13003ft 290kts
10-Jan-21 10:23 35.795047 -115.573601 359 12998ft 275kts
10-Jan-21 10:24 35.862091 -115.528706 31 12653ft 284kts
10-Jan-21 10:25 35.925509 -115.471420 32 11897ft 279kts
10-Jan-21 10:26 35.958726 -115.381672 64 11012ft 291kts
10-Jan-21 10:27 35.988635 -115.291016 65 9792ft 284kts
10-Jan-21 10:28 36.017439 -115.200954 85 8492ft 279kts
10-Jan-21 10:29 36.011905 -115.106454 94 7204ft 272kts
10-Jan-21 10:30 36.006183 -115.013667 94 6948ft 273kts
10-Jan-21 10:31 36.000688 -114.921002 94 6015ft 266kts
10-Jan-21 10:32 36.018077 -114.838305 27 6000ft 269kts
10-Jan-21 10:33 36.071068 -114.866624 281 6051ft 223kts
10-Jan-21 10:34 36.074023 -114.935038 268 5291ft 186kts
10-Jan-21 10:35 36.073540 -114.997027 270 4257ft 170kts
10-Jan-21 10:36 36.073619 -115.053694 270 3364ft 152kts
10-Jan-21 10:37 36.073767 -115.105530 270 2541ft 148kts
10-Jan-21 10:38 36.073785 -115.147733 278 2188ft 38kts
10-Jan-21 10:39 36.077252 -115.152439 334 2188ft 11kts
10-Jan-21 10:40 36.078752 -115.152641 80 2188ft 12kts
10-Jan-21 10:41 36.078552 -115.147528 94 2188ft 17kts
10-Jan-21 10:42 36.079655 -115.145729 335 2188ft 7kts
10-Jan-21 10:43 36.079793 -115.145806 335 2188ft 0kts
10-Jan-21 10:45 36.079793 -115.145806 335 2188ft 0kts
10-Jan-21 10:46 36.079793 -115.145806 335 2188ft 0kts
10-Jan-21 10:47 36.079793 -115.145806 335 2188ft 0kts
10-Jan-21 10:48 36.079793 -115.145806 335 2188ft 0kts
10-Jan-21 10:49 36.079793 -115.145806 335 2188ft 0kts
10-Jan-21 10:50 36.079793 -115.145806 335 2188ft 0kts
10-Jan-21 10:51 36.079793 -115.145806 335 2188ft 0kts
10-Jan-21 10:52 36.079793 -115.145806 335 2188ft 0kts

Navigation Log

Ident Type
Flight plan parsing failed, navigation log unavailable